Terminal Aerodrome Forecast
Issued by NWS

Home | Current Version | Previous Version | Graphics & Text | Print | Product List | Glossary On
Versions: 1 2 3 4 5 6 7 8 9 10 11 12 13 14 15 16 17 18 19 20 21 22 23 24
436
FTUS43 KTOP 211736
TAFFOE
TAF
KFOE 211736Z 2118/2218 04011KT P6SM FEW050 SCT100
     FM220300 06009KT 6SM -SNPL SCT025 OVC040
     FM220500 06008KT 3SM -FZRASNPL OVC015
     FM220900 07007KT 3SM -FZRAPL OVC008=

USA.gov is the U.S. government's official web portal to all federal, state and local government web resources and services.